Flight Sim Network - SASJ Airport Info

    SASJ (Gobernador Horacio Guzman International Airport)  Login to use Map Selector
   

  RUNWAY INFORMATION    |    Airport Elevation : 3019ft    |    LAT : -24.3927993774  /  LON : -65.0978012085
Runway Number 16 / 34 Runway Width 131' Runway Length 9698'
Lighted Runway Yes Runway StatusOpen Runway Surface Asphalt
  CLOSE ALTERNATE AIRPORTS
ICAODistanceAirport NameLongest RWRW SurfaceMAP
SA1D13NMJujuy Aeroclub4050FTAsphalt
SASA35NMMartin Miguel De Guemes International Airport9842FTAsphalt
SA0O41NMCalilegua6693FTAsphalt
SASO86NMOran4839FTAsphalt
SLBJ106NMBermejo Airport4921FTGrass
  AIRPORT WEATHER
69°F | 21°C
Temperature
49%
Humidity
29" | 0mb
Pressure
6sm
Visibility
VFR
Flight Rules
CAVOK
Initial Clouds
FAIR
Conditions
Wind Info
7/23/24 18:00Z
Updated

SASJ 231800Z 06010KT 020V100 CAVOK 21/10 Q1015
  AIRPORT FREQUENCIES
NameFrequency
GROUND118.700
TOWER118.500
APPROACH118.500
DEPARTURE118.700
JU (RWY 33)110.100

Powered by Virtual Airlines Manager